createdAt,value
2022-07-29T00:04:42.931Z,20.90
2022-07-29T00:09:51.984Z,20.90
2022-07-29T00:14:58.234Z,21.20
2022-07-29T00:20:01.501Z,21.10
2022-07-29T00:25:05.177Z,21.10
2022-07-29T00:30:10.764Z,21.10
2022-07-29T00:35:31.482Z,20.90
2022-07-29T00:40:36.985Z,20.30
2022-07-29T00:45:45.067Z,20.20
2022-07-29T00:50:48.552Z,19.70
2022-07-29T00:55:52.492Z,19.40
2022-07-29T01:00:57.504Z,19.30
2022-07-29T01:06:01.713Z,19.50
2022-07-29T01:11:05.638Z,19.60
2022-07-29T01:16:17.114Z,19.60
2022-07-29T01:21:52.482Z,19.50
2022-07-29T01:27:05.964Z,19.60
2022-07-29T01:32:22.574Z,19.60
2022-07-29T01:37:37.274Z,19.40
2022-07-29T01:42:45.064Z,19.30
2022-07-29T01:47:58.874Z,19.30
2022-07-29T01:53:05.757Z,19.50
2022-07-29T01:58:10.435Z,19.50
2022-07-29T02:03:17.822Z,19.60
2022-07-29T02:08:22.970Z,23.40
2022-07-29T02:13:28.168Z,19.80
2022-07-29T02:18:33.991Z,19.80
2022-07-29T02:23:50.439Z,19.80
2022-07-29T02:28:58.410Z,19.90
2022-07-29T02:34:05.509Z,20.00
2022-07-29T02:39:10.800Z,19.90
2022-07-29T02:44:17.435Z,19.50
2022-07-29T02:49:32.982Z,19.60
2022-07-29T02:54:48.026Z,22.20
2022-07-29T02:59:54.960Z,19.50
2022-07-29T03:05:00.280Z,19.20
2022-07-29T03:10:06.445Z,19.00
2022-07-29T03:15:16.829Z,18.90
2022-07-29T03:20:21.633Z,19.00
2022-07-29T03:25:24.990Z,19.10
2022-07-29T03:30:28.961Z,19.10
2022-07-29T03:35:33.669Z,19.10
2022-07-29T03:40:42.960Z,18.70
2022-07-29T03:45:51.966Z,18.40
2022-07-29T03:50:56.633Z,18.50
2022-07-29T03:56:04.062Z,18.40
2022-07-29T04:01:07.642Z,18.30
2022-07-29T04:06:12.259Z,18.30
2022-07-29T04:11:15.588Z,18.50
2022-07-29T04:16:18.910Z,18.40
2022-07-29T04:21:23.896Z,18.30
2022-07-29T04:26:27.159Z,18.30
2022-07-29T04:31:30.572Z,18.30
2022-07-29T04:36:35.421Z,18.20
2022-07-29T04:41:38.666Z,18.30
2022-07-29T04:46:41.957Z,18.70
2022-07-29T04:51:46.635Z,18.70
2022-07-29T04:56:49.842Z,18.40
2022-07-29T05:01:53.193Z,18.40
2022-07-29T05:06:57.866Z,18.60
2022-07-29T05:12:01.126Z,18.80
2022-07-29T05:17:04.513Z,18.90
2022-07-29T05:22:09.244Z,18.90
2022-07-29T05:27:12.533Z,19.20
2022-07-29T05:32:16.118Z,19.40
2022-07-29T05:37:21.057Z,19.40
2022-07-29T05:42:24.401Z,19.20
2022-07-29T05:47:27.727Z,19.40
2022-07-29T05:52:32.412Z,19.60
2022-07-29T05:57:35.688Z,19.70
2022-07-29T06:02:39.014Z,19.70
2022-07-29T06:07:50.645Z,19.80
2022-07-29T06:12:54.583Z,19.90
2022-07-29T06:17:59.132Z,20.00
2022-07-29T06:23:05.587Z,20.50
2022-07-29T06:28:09.037Z,20.90
2022-07-29T06:33:17.946Z,19.00
2022-07-29T06:38:30.653Z,20.80
2022-07-29T06:43:50.272Z,21.50
2022-07-29T06:48:56.407Z,26.00
2022-07-29T06:54:03.237Z,22.20
2022-07-29T06:59:07.463Z,22.10
2022-07-29T07:04:11.643Z,22.10
2022-07-29T07:09:16.355Z,21.80
2022-07-29T07:14:20.204Z,21.50
2022-07-29T07:19:24.060Z,22.30
2022-07-29T07:24:28.828Z,23.90
2022-07-29T07:29:32.119Z,24.40
2022-07-29T07:34:35.690Z,26.00
2022-07-29T07:39:40.383Z,26.30
2022-07-29T07:45:10.993Z,27.10
2022-07-29T07:50:08.474Z,26.60
2022-07-29T07:55:13.121Z,26.70
2022-07-29T08:00:17.517Z,23.30
2022-07-29T08:05:22.429Z,24.80
2022-07-29T08:10:44.756Z,25.10
2022-07-29T08:15:48.422Z,24.70
2022-07-29T08:20:51.684Z,25.20
2022-07-29T08:25:56.289Z,26.70
2022-07-29T08:30:59.565Z,28.20
2022-07-29T08:36:03.411Z,30.10
2022-07-29T08:41:08.414Z,30.60
2022-07-29T08:46:11.742Z,28.90
2022-07-29T08:51:16.929Z,28.80
2022-07-29T08:56:22.585Z,29.60
2022-07-29T09:01:35.770Z,29.90
2022-07-29T09:06:44.076Z,29.70
2022-07-29T09:11:48.872Z,30.00
2022-07-29T09:16:57.286Z,30.40
2022-07-29T09:22:03.739Z,30.90
2022-07-29T09:27:13.763Z,30.00
2022-07-29T09:32:17.030Z,31.70
2022-07-29T09:37:29.009Z,31.70
2022-07-29T09:42:34.907Z,29.10
2022-07-29T09:47:45.992Z,29.30
2022-07-29T09:52:51.301Z,28.50
2022-07-29T09:57:56.028Z,31.10
2022-07-29T10:03:03.558Z,30.30
2022-07-29T10:08:08.667Z,31.90
2022-07-29T10:13:15.955Z,33.20
2022-07-29T10:18:21.041Z,34.10
2022-07-29T10:23:24.963Z,34.00
2022-07-29T10:28:29.642Z,33.10
2022-07-29T10:33:47.549Z,30.40
2022-07-29T10:38:57.717Z,30.30
2022-07-29T10:44:05.983Z,31.90
2022-07-29T10:49:11.912Z,31.90
2022-07-29T10:54:18.813Z,31.30
2022-07-29T10:59:36.318Z,28.90
2022-07-29T11:05:02.591Z,27.10
2022-07-29T11:10:26.999Z,27.30
2022-07-29T11:15:55.344Z,28.70
2022-07-29T11:21:00.800Z,29.20
2022-07-29T11:26:23.189Z,30.10
2022-07-29T11:31:39.727Z,30.30
2022-07-29T11:37:27.707Z,29.20
2022-07-29T11:42:44.379Z,29.80
2022-07-29T11:47:56.336Z,29.60
2022-07-29T11:53:03.324Z,29.10
2022-07-29T11:58:14.936Z,27.90
2022-07-29T12:03:33.300Z,28.60
2022-07-29T12:08:44.899Z,28.20
2022-07-29T12:13:50.211Z,27.90
2022-07-29T12:19:06.524Z,28.20
2022-07-29T12:24:10.579Z,28.90
2022-07-29T12:29:20.483Z,30.20
2022-07-29T12:34:41.625Z,30.90
2022-07-29T12:39:46.771Z,30.00
2022-07-29T12:44:53.402Z,31.60
2022-07-29T12:50:13.183Z,31.00
2022-07-29T12:55:18.068Z,30.70
2022-07-29T13:00:26.756Z,29.80
2022-07-29T13:05:49.180Z,29.00
2022-07-29T13:10:53.113Z,29.40
2022-07-29T13:16:09.013Z,30.00
2022-07-29T13:21:18.899Z,29.90
2022-07-29T13:26:22.621Z,29.20
2022-07-29T13:31:26.506Z,28.80
2022-07-29T13:36:31.851Z,29.60
2022-07-29T13:41:35.867Z,30.70
2022-07-29T13:46:40.614Z,31.00
2022-07-29T13:51:45.683Z,30.60
2022-07-29T13:56:49.268Z,30.10
2022-07-29T14:01:53.027Z,29.70
2022-07-29T14:06:58.366Z,29.90
2022-07-29T14:12:07.774Z,29.90
2022-07-29T14:17:11.721Z,29.20
2022-07-29T14:22:16.419Z,29.20
2022-07-29T14:27:19.755Z,27.70
2022-07-29T14:32:41.410Z,28.70
2022-07-29T14:37:46.051Z,28.30
2022-07-29T14:42:50.505Z,27.90
2022-07-29T14:47:57.477Z,27.60
2022-07-29T14:53:03.268Z,27.20
2022-07-29T14:58:12.063Z,26.70
2022-07-29T15:03:23.819Z,26.80
2022-07-29T15:08:30.910Z,26.70
2022-07-29T15:13:34.878Z,26.50
2022-07-29T15:18:39.316Z,24.60
2022-07-29T15:23:43.934Z,27.50
2022-07-29T15:28:47.199Z,27.00
2022-07-29T15:33:53.333Z,27.20
2022-07-29T15:39:02.417Z,27.50
2022-07-29T15:44:06.156Z,27.50
2022-07-29T15:49:09.579Z,27.70
2022-07-29T15:54:14.218Z,27.70
2022-07-29T15:59:22.071Z,27.50
2022-07-29T16:04:26.223Z,26.90
2022-07-29T16:09:30.959Z,26.80
2022-07-29T16:14:34.675Z,26.30
2022-07-29T16:19:37.963Z,26.00
2022-07-29T16:24:43.049Z,25.80
2022-07-29T16:29:48.041Z,25.70
2022-07-29T16:34:51.695Z,25.50
2022-07-29T16:39:56.346Z,25.50
2022-07-29T16:44:59.624Z,25.40
2022-07-29T16:50:03.264Z,25.50
2022-07-29T16:55:09.090Z,25.50
2022-07-29T17:00:14.081Z,25.40
2022-07-29T17:05:17.743Z,25.60
2022-07-29T17:10:23.301Z,25.40
2022-07-29T17:15:26.822Z,25.20
2022-07-29T17:20:30.177Z,25.10
2022-07-29T17:25:34.820Z,24.90
2022-07-29T17:30:38.114Z,24.90
2022-07-29T17:35:58.653Z,24.90
2022-07-29T17:41:03.256Z,24.80
2022-07-29T17:46:12.907Z,24.60
2022-07-29T17:51:16.586Z,24.50
2022-07-29T17:56:21.241Z,24.30
2022-07-29T18:01:24.551Z,24.00
2022-07-29T18:06:28.091Z,23.70
2022-07-29T18:11:32.712Z,23.50
2022-07-29T18:16:36.034Z,23.50
2022-07-29T18:21:51.431Z,23.40
2022-07-29T18:27:00.334Z,23.40
2022-07-29T18:32:03.979Z,23.20
2022-07-29T18:37:07.821Z,23.10
2022-07-29T18:42:12.504Z,23.10
2022-07-29T18:47:15.762Z,22.90
2022-07-29T18:52:19.288Z,22.90
2022-07-29T18:57:55.846Z,22.80
2022-07-29T19:02:47.736Z,22.70
2022-07-29T19:07:51.133Z,22.80
2022-07-29T19:12:56.892Z,22.60
2022-07-29T19:18:01.351Z,22.50
2022-07-29T19:23:04.940Z,22.20
2022-07-29T19:28:09.621Z,21.80
2022-07-29T19:33:14.757Z,22.00
2022-07-29T19:38:19.135Z,21.80
2022-07-29T19:43:51.111Z,19.10
2022-07-29T19:48:47.281Z,21.30
2022-07-29T19:53:51.005Z,21.20
2022-07-29T19:58:55.663Z,21.00
2022-07-29T20:03:58.951Z,21.00
2022-07-29T20:09:02.214Z,20.90
2022-07-29T20:14:06.852Z,20.90
2022-07-29T20:19:10.523Z,20.60
2022-07-29T20:24:13.867Z,18.00
2022-07-29T20:29:18.865Z,20.40
2022-07-29T20:34:22.182Z,20.40
2022-07-29T20:39:26.103Z,20.30
2022-07-29T20:44:30.804Z,20.30
2022-07-29T20:49:34.534Z,20.30
2022-07-29T20:54:37.916Z,20.40
2022-07-29T20:59:45.817Z,20.40
2022-07-29T21:04:49.331Z,20.40
2022-07-29T21:09:52.588Z,17.40
2022-07-29T21:14:57.890Z,20.00
2022-07-29T21:20:01.194Z,19.70
2022-07-29T21:25:05.062Z,19.50
2022-07-29T21:30:11.746Z,19.30
2022-07-29T21:35:23.393Z,19.10
2022-07-29T21:40:39.617Z,18.90
2022-07-29T21:45:47.678Z,18.60
2022-07-29T21:50:52.068Z,18.50
2022-07-29T21:55:55.641Z,18.50
2022-07-29T22:01:00.385Z,18.40
2022-07-29T22:06:03.809Z,18.30
2022-07-29T22:11:07.061Z,18.30
2022-07-29T22:16:15.054Z,18.20
2022-07-29T22:21:18.525Z,18.20
2022-07-29T22:26:21.774Z,18.20
2022-07-29T22:31:26.469Z,18.10
2022-07-29T22:36:29.782Z,18.10
2022-07-29T22:41:33.177Z,18.10
2022-07-29T22:46:38.162Z,18.10
2022-07-29T22:51:41.513Z,18.10
2022-07-29T22:56:44.815Z,18.10
2022-07-29T23:01:49.552Z,18.10
2022-07-29T23:06:52.866Z,18.10
2022-07-29T23:11:56.094Z,18.10
2022-07-29T23:17:00.920Z,18.10
2022-07-29T23:22:04.406Z,18.00
2022-07-29T23:27:07.699Z,18.10
2022-07-29T23:32:12.334Z,18.10
2022-07-29T23:37:15.581Z,18.00
2022-07-29T23:42:18.833Z,17.90
2022-07-29T23:47:23.476Z,17.80
2022-07-29T23:52:26.765Z,17.80
2022-07-29T23:57:29.995Z,17.70
